Time;durP1;ratioP1;P1;durP2;ratioP2;P2;SDS_P1;SDS_P2;PMS_P1;PMS_P2;Temp;Humidity;BMP_temperature;BMP_pressure;BME280_temperature;BME280_humidity;BME280_pressure;Samples;Min_cycle;Max_cycle;Signal;HPM_P1;HPM_P2
2020/12/05 00:01:57;;;;;;;;;;;;;;;0.50;82.02;98042.78;5017441;28;19990;-67
2020/12/05 00:04:24;;;;;;;;;;;;;;;0.53;82.39;98053.94;5059272;28;19928;-66
2020/12/05 00:06:50;;;;;;;;;;;;;;;0.55;82.21;98059.91;5033239;28;20810;-67
2020/12/05 00:09:16;;;;;;;;;;;;;;;0.56;81.70;98074.13;5053172;28;20020;-67
2020/12/05 00:11:42;;;;;;;;;;;;;;;0.86;80.66;98080.72;5049201;28;19979;-67
2020/12/05 00:14:09;;;;;;;;;;;;;;;0.83;79.96;98086.50;5051105;28;19975;-66
2020/12/05 00:16:35;;;;;;;;;;;;;;;0.69;80.88;98084.03;5032580;28;19925;-66
2020/12/05 00:19:01;;;;;;;;;;;;;;;0.47;81.59;98070.00;5039788;28;19986;-67
2020/12/05 00:21:27;;;;;;;;;;;;;;;0.38;82.26;98080.06;5035300;28;19974;-66
2020/12/05 00:23:54;;;;;;;;;;;;;;;0.31;82.66;98081.94;5035467;28;19925;-66
2020/12/05 00:26:20;;;;;;;;;;;;;;;0.29;82.78;98086.66;5015487;28;19925;-67
2020/12/05 00:28:47;;;;;;;;;;;;;;;0.30;83.04;98074.94;5022014;28;19971;-66
2020/12/05 00:31:14;;;;;;;;;;;;;;;0.34;82.78;98081.53;5045821;28;19933;-66
2020/12/05 00:33:40;;;;;;;;;;;;;;;0.37;82.86;98075.75;5029925;28;19925;-66
2020/12/05 00:36:08;;;;;;;;;;;;;;;0.46;82.92;98082.56;5025195;28;20421;-66
2020/12/05 00:38:35;;;;;;;;;;;;;;;0.51;82.02;98077.41;5034409;28;19978;-66
2020/12/05 00:41:04;;;;;;;;;;;;;;;0.59;81.84;98077.22;5050831;28;20164;-66
2020/12/05 00:43:30;;;;;;;;;;;;;;;0.71;82.16;98071.22;5031748;28;19925;-67
2020/12/05 00:45:57;;;;;;;;;;;;;;;0.79;81.25;98069.19;5022122;28;20458;-67
2020/12/05 00:48:23;;;;;;;;;;;;;;;0.83;81.60;98058.88;5048077;28;20301;-65
2020/12/05 00:50:50;;;;;;;;;;;;;;;0.88;80.82;98057.22;5050890;28;20015;-67
2020/12/05 00:53:17;;;;;;;;;;;;;;;0.94;80.66;98045.66;5051702;28;19932;-66
2020/12/05 00:55:44;;;;;;;;;;;;;;;0.96;80.78;98040.09;5051845;28;19925;-67
2020/12/05 00:58:11;;;;;;;;;;;;;;;0.94;80.16;98042.16;5047646;28;19932;-67
2020/12/05 01:00:37;;;;;;;;;;;;;;;0.95;80.17;98051.84;5064806;28;20307;-67
2020/12/05 01:03:04;;;;;;;;;;;;;;;0.94;80.50;98055.56;5050932;28;19929;-67
2020/12/05 01:05:32;;;;;;;;;;;;;;;0.91;80.42;98064.03;5034620;28;19913;-68
2020/12/05 01:08:05;;;;;;;;;;;;;;;0.93;80.53;98067.31;5042754;28;20302;-67
2020/12/05 01:10:31;;;;;;;;;;;;;;;0.90;80.34;98075.78;5031419;28;19925;-67
2020/12/05 01:12:57;;;;;;;;;;;;;;;1.10;79.54;98065.03;4999604;28;19948;-67
2020/12/05 01:15:24;;;;;;;;;;;;;;;1.13;79.67;98061.94;5034516;28;19925;-67
2020/12/05 01:17:50;;;;;;;;;;;;;;;0.90;79.91;98063.19;5032826;28;19925;-67
2020/12/05 01:20:16;;;;;;;;;;;;;;;0.82;80.48;98063.41;5034671;28;19932;-67
2020/12/05 01:22:42;;;;;;;;;;;;;;;0.80;80.83;98070.84;5049126;28;20044;-67
2020/12/05 01:25:09;;;;;;;;;;;;;;;0.87;80.31;98076.19;5048222;28;19932;-67
2020/12/05 01:27:36;;;;;;;;;;;;;;;0.93;80.33;98086.09;5062467;28;19925;-66
2020/12/05 01:30:02;;;;;;;;;;;;;;;0.99;80.58;98090.63;5031589;28;19932;-67
2020/12/05 01:32:29;;;;;;;;;;;;;;;0.99;80.37;98088.78;5010400;28;19928;-67
2020/12/05 01:34:55;;;;;;;;;;;;;;;0.92;80.30;98087.13;5017517;28;19964;-67
2020/12/05 01:37:21;;;;;;;;;;;;;;;0.97;80.17;98087.34;5066904;28;19924;-67
2020/12/05 01:39:48;;;;;;;;;;;;;;;1.03;80.56;98089.19;5051133;28;19925;-67
2020/12/05 01:42:14;;;;;;;;;;;;;;;1.10;80.29;98094.53;5052000;28;19925;-67
2020/12/05 01:44:40;;;;;;;;;;;;;;;1.13;79.87;98112.88;5015895;28;19928;-67
2020/12/05 01:47:08;;;;;;;;;;;;;;;1.09;80.57;98109.78;5030892;28;19926;-68
2020/12/05 01:49:34;;;;;;;;;;;;;;;1.03;80.33;98094.56;5059692;28;20394;-67
2020/12/05 01:52:01;;;;;;;;;;;;;;;1.21;79.94;98096.59;5052427;28;19932;-67
2020/12/05 01:54:28;;;;;;;;;;;;;;;1.29;79.26;98096.38;5020991;28;19935;-67
2020/12/05 01:56:57;;;;;;;;;;;;;;;1.38;78.82;98088.94;5037522;28;19980;-67
2020/12/05 01:59:23;;;;;;;;;;;;;;;1.44;78.79;98080.03;5038092;28;19928;-67
2020/12/05 02:01:51;;;;;;;;;;;;;;;1.52;78.48;98093.22;5049963;28;19925;-67
2020/12/05 02:04:17;;;;;;;;;;;;;;;1.57;78.17;98093.41;5057767;28;19963;-67
2020/12/05 02:06:49;;;;;;;;;;;;;;;1.58;78.25;98090.53;5063308;28;20007;-67
2020/12/05 02:09:22;;;;;;;;;;;;;;;1.60;78.09;98093.00;5087612;28;19925;-67
2020/12/05 02:11:51;;;;;;;;;;;;;;;1.70;77.58;98104.13;5069485;28;19948;-66
2020/12/05 02:14:19;;;;;;;;;;;;;;;1.79;76.73;98102.81;5016821;28;19925;-67
2020/12/05 02:16:45;;;;;;;;;;;;;;;1.73;76.92;98121.66;5000567;28;19994;-66
2020/12/05 02:19:12;;;;;;;;;;;;;;;2.05;75.78;98141.38;5030278;28;19932;-68
2020/12/05 02:21:38;;;;;;;;;;;;;;;2.12;75.64;98148.34;5001746;28;19925;-67
2020/12/05 02:24:05;;;;;;;;;;;;;;;2.13;75.39;98141.94;5019713;28;19932;-66
2020/12/05 02:26:31;;;;;;;;;;;;;;;1.86;75.91;98130.50;5033718;28;20015;-67
2020/12/05 02:28:57;;;;;;;;;;;;;;;1.74;77.33;98099.94;5044003;28;19925;-67
2020/12/05 02:31:24;;;;;;;;;;;;;;;1.70;77.45;98096.06;5046212;28;20036;-66
2020/12/05 02:33:51;;;;;;;;;;;;;;;1.83;77.15;98090.63;5062756;28;19924;-67
2020/12/05 02:36:17;;;;;;;;;;;;;;;1.87;76.98;98045.38;5034131;28;19925;-67
2020/12/05 02:38:45;;;;;;;;;;;;;;;1.90;76.89;98045.78;5043651;28;19932;-67
2020/12/05 02:41:12;;;;;;;;;;;;;;;1.91;77.06;98047.44;5020574;28;19929;-67
2020/12/05 02:43:38;;;;;;;;;;;;;;;1.93;76.87;98017.69;5053634;28;19978;-68
2020/12/05 02:46:04;;;;;;;;;;;;;;;1.81;77.56;97998.72;5017262;28;19925;-68
2020/12/05 02:48:31;;;;;;;;;;;;;;;1.75;77.43;97964.69;5004302;28;19925;-67
2020/12/05 02:50:57;;;;;;;;;;;;;;;1.67;77.80;97911.25;5036799;28;20019;-67
2020/12/05 02:53:23;;;;;;;;;;;;;;;1.51;78.60;97864.28;5052341;28;19925;-67
2020/12/05 02:55:49;;;;;;;;;;;;;;;1.38;78.68;97834.03;5052816;28;19932;-66
2020/12/05 02:58:16;;;;;;;;;;;;;;;1.26;79.56;97826.66;5053919;28;19952;-67
2020/12/05 03:00:42;;;;;;;;;;;;;;;1.26;79.42;97861.53;5081641;22;19929;-71
2020/12/05 03:03:08;;;;;;;;;;;;;;;1.28;79.38;97926.53;5067838;28;19924;-70
2020/12/05 03:05:34;;;;;;;;;;;;;;;1.46;78.81;97960.69;5064480;28;20366;-71
2020/12/05 03:08:01;;;;;;;;;;;;;;;1.49;78.72;97906.59;5073584;28;19932;-70
2020/12/05 03:10:27;;;;;;;;;;;;;;;1.42;78.04;97969.38;5052825;28;19925;-70
2020/12/05 03:12:54;;;;;;;;;;;;;;;1.58;77.74;97944.75;5056018;28;19924;-70
2020/12/05 03:15:20;;;;;;;;;;;;;;;1.49;78.34;97928.06;5038482;28;20345;-70
2020/12/05 03:17:46;;;;;;;;;;;;;;;1.51;78.40;97960.06;5071106;28;20379;-70
2020/12/05 03:20:13;;;;;;;;;;;;;;;1.47;78.14;97932.84;5071599;28;19928;-70
2020/12/05 03:22:39;;;;;;;;;;;;;;;1.57;77.74;97991.41;5052641;28;19933;-70
2020/12/05 03:25:05;;;;;;;;;;;;;;;1.45;77.78;98001.16;5064963;28;19990;-70
2020/12/05 03:27:31;;;;;;;;;;;;;;;1.57;78.05;98029.00;5055779;28;20210;-70
2020/12/05 03:29:58;;;;;;;;;;;;;;;1.51;77.96;98017.25;5052095;28;20402;-70
2020/12/05 03:32:25;;;;;;;;;;;;;;;1.29;78.63;97946.13;5052600;28;19924;-70
2020/12/05 03:34:52;;;;;;;;;;;;;;;1.50;78.56;98001.34;5054656;28;19971;-70
2020/12/05 03:37:19;;;;;;;;;;;;;;;1.17;79.76;97955.88;5055817;28;19986;-71
2020/12/05 03:39:45;;;;;;;;;;;;;;;1.10;80.02;97974.66;5052012;28;19925;-70
2020/12/05 03:42:12;;;;;;;;;;;;;;;1.20;80.04;97982.28;5045916;28;19932;-71
2020/12/05 03:44:38;;;;;;;;;;;;;;;1.05;80.13;97961.06;5071283;28;19932;-70
2020/12/05 03:47:04;;;;;;;;;;;;;;;0.96;81.15;97967.72;5051135;28;20413;-70
2020/12/05 03:49:32;;;;;;;;;;;;;;;0.93;80.84;97986.88;5073952;28;19932;-71
2020/12/05 03:52:02;;;;;;;;;;;;;;;0.99;80.93;97989.56;5073723;28;19928;-71
2020/12/05 03:54:28;;;;;;;;;;;;;;;1.11;80.29;97987.03;5074020;28;19983;-71
2020/12/05 03:56:56;;;;;;;;;;;;;;;1.33;79.79;98017.13;5055558;28;20322;-70
2020/12/05 03:59:22;;;;;;;;;;;;;;;1.58;78.33;98014.53;5056884;28;19993;-70
2020/12/05 04:01:49;;;;;;;;;;;;;;;2.06;76.54;98033.72;5073516;28;19924;-70
2020/12/05 04:04:15;;;;;;;;;;;;;;;2.16;75.47;98017.13;5073734;28;20236;-70
2020/12/05 04:06:41;;;;;;;;;;;;;;;2.10;75.70;97996.50;5073868;28;20404;-70
2020/12/05 04:09:07;;;;;;;;;;;;;;;1.83;76.69;98011.94;5036717;28;19925;-70
2020/12/05 04:11:38;;;;;;;;;;;;;;;2.10;75.73;98008.06;5035810;28;20332;-70
2020/12/05 04:14:04;;;;;;;;;;;;;;;2.19;75.30;98005.94;5067121;28;20394;-70
2020/12/05 04:16:31;;;;;;;;;;;;;;;2.09;75.82;98005.59;5064498;28;19924;-70
2020/12/05 04:18:57;;;;;;;;;;;;;;;2.23;75.32;98001.78;5071595;28;20034;-70
2020/12/05 04:21:23;;;;;;;;;;;;;;;2.32;74.67;98005.88;5073106;28;19925;-70
2020/12/05 04:23:49;;;;;;;;;;;;;;;2.53;73.87;97992.03;5072715;28;19936;-70
2020/12/05 04:26:16;;;;;;;;;;;;;;;2.35;74.33;97973.19;5052448;28;20414;-70
2020/12/05 04:28:42;;;;;;;;;;;;;;;2.30;74.62;97965.78;5067639;28;19964;-70
2020/12/05 04:31:08;;;;;;;;;;;;;;;2.16;74.76;97969.59;5060154;28;20344;-71
2020/12/05 04:33:34;;;;;;;;;;;;;;;2.12;75.52;97986.34;5057785;28;19936;-71
2020/12/05 04:36:01;;;;;;;;;;;;;;;2.09;75.71;97967.97;5051384;28;19926;-70
2020/12/05 04:38:28;;;;;;;;;;;;;;;2.10;75.40;97980.38;5045679;28;20336;-70
2020/12/05 04:40:55;;;;;;;;;;;;;;;1.94;75.97;97992.47;5070935;28;20023;-70
2020/12/05 04:43:21;;;;;;;;;;;;;;;1.62;77.02;98000.50;5050702;28;20341;-70
2020/12/05 04:45:47;;;;;;;;;;;;;;;1.19;79.21;97994.88;5047281;28;19956;-70
2020/12/05 04:48:16;;;;;;;;;;;;;;;0.97;80.33;98018.44;5051127;28;19925;-70
2020/12/05 04:50:42;;;;;;;;;;;;;;;0.76;81.39;98033.91;5063733;28;19954;-70
2020/12/05 04:53:15;;;;;;;;;;;;;;;0.86;81.60;98047.75;5038133;28;20358;-70
2020/12/05 04:55:42;;;;;;;;;;;;;;;0.83;82.03;98085.69;5070998;28;19924;-70
2020/12/05 04:58:15;;;;;;;;;;;;;;;0.84;81.96;98103.41;5070346;28;19924;-70
2020/12/05 05:00:42;;;;;;;;;;;;;;;0.68;82.71;98123.41;5070671;28;19928;-70
2020/12/05 05:03:09;;;;;;;;;;;;;;;0.61;82.97;98157.41;5070251;28;19928;-70
2020/12/05 05:05:35;;;;;;;;;;;;;;;0.51;82.63;98156.97;5034361;28;20180;-70
2020/12/05 05:08:02;;;;;;;;;;;;;;;0.51;83.43;98156.97;5065462;28;19951;-70
2020/12/05 05:10:31;;;;;;;;;;;;;;;0.47;83.21;98143.16;5053798;28;19924;-70
2020/12/05 05:13:05;;;;;;;;;;;;;;;0.35;83.94;98149.31;5041018;28;19975;-70
2020/12/05 05:15:31;;;;;;;;;;;;;;;0.29;84.24;98125.00;5052827;28;20361;-71
2020/12/05 05:18:02;;;;;;;;;;;;;;;0.22;83.94;98107.25;5050917;28;19924;-71
2020/12/05 05:20:28;;;;;;;;;;;;;;;0.21;83.83;98140.41;5049196;28;20018;-70
2020/12/05 05:23:15;;;;;;;;;;;;;;;0.14;84.82;98193.13;5053657;28;19928;-70
2020/12/05 05:25:55;;;;;;;;;;;;;;;0.13;84.86;98250.38;5056425;28;20036;-70
2020/12/05 05:28:22;;;;;;;;;;;;;;;0.22;84.21;98270.63;5037224;28;19971;-70
2020/12/05 05:31:02;;;;;;;;;;;;;;;0.25;84.93;98254.16;5051645;28;19936;-70
2020/12/05 05:33:42;;;;;;;;;;;;;;;0.19;84.89;98257.63;5064524;28;20019;-71
2020/12/05 05:36:15;;;;;;;;;;;;;;;0.22;84.43;98265.25;5062047;28;19967;-70
2020/12/05 05:38:43;;;;;;;;;;;;;;;0.21;84.34;98256.41;5046567;28;19928;-70
2020/12/05 05:41:16;;;;;;;;;;;;;;;0.24;84.67;98253.31;5030233;28;19940;-70
2020/12/05 05:43:58;;;;;;;;;;;;;;;0.21;84.85;98272.47;5032999;28;19924;-70
2020/12/05 05:46:25;;;;;;;;;;;;;;;0.21;85.09;98275.16;5032177;28;20673;-70
2020/12/05 05:48:51;;;;;;;;;;;;;;;0.16;85.15;98266.06;5050602;28;19924;-70
2020/12/05 05:51:17;;;;;;;;;;;;;;;0.18;84.87;98264.00;5050573;28;19928;-70
2020/12/05 05:53:43;;;;;;;;;;;;;;;0.13;85.28;98277.16;5048483;28;20070;-70
2020/12/05 05:56:12;;;;;;;;;;;;;;;0.07;85.38;98270.72;5052191;28;20024;-70
2020/12/05 05:58:41;;;;;;;;;;;;;;;0.10;85.56;98267.66;5049662;28;20023;-70
2020/12/05 06:01:07;;;;;;;;;;;;;;;0.14;85.36;98268.91;5048736;28;20381;-70
2020/12/05 06:03:36;;;;;;;;;;;;;;;0.15;85.40;98288.50;5048168;28;19931;-70
2020/12/05 06:06:04;;;;;;;;;;;;;;;0.12;85.73;98278.19;5049790;28;19979;-70
2020/12/05 06:08:30;;;;;;;;;;;;;;;0.13;85.85;98277.16;5032131;28;19968;-70
2020/12/05 06:11:02;;;;;;;;;;;;;;;0.12;85.68;98289.72;5050244;28;19932;-70
2020/12/05 06:13:29;;;;;;;;;;;;;;;0.18;85.81;98312.22;5052061;28;19933;-71
2020/12/05 06:15:56;;;;;;;;;;;;;;;0.31;84.55;98323.00;5029818;28;20508;-70
2020/12/05 06:18:22;;;;;;;;;;;;;;;0.27;85.44;98340.50;5033174;28;20279;-70
2020/12/05 06:20:48;;;;;;;;;;;;;;;0.22;85.11;98334.91;5049023;28;19925;-71
2020/12/05 06:23:27;;;;;;;;;;;;;;;0.28;85.01;98328.75;5031677;28;19928;-70
2020/12/05 06:25:53;;;;;;;;;;;;;;;0.17;85.29;98311.38;5049775;28;19967;-70
2020/12/05 06:28:21;;;;;;;;;;;;;;;0.18;85.43;98296.13;5047547;28;20325;-70
2020/12/05 06:30:47;;;;;;;;;;;;;;;0.14;85.23;98274.28;5048794;28;20365;-70
2020/12/05 06:33:32;;;;;;;;;;;;;;;0.11;85.71;98280.03;5051682;28;19935;-69
2020/12/05 06:35:59;;;;;;;;;;;;;;;0.04;85.19;98307.78;5050293;28;19925;-70
2020/12/05 06:38:25;;;;;;;;;;;;;;;0.18;84.73;98318.38;5048780;28;20403;-70
2020/12/05 06:40:51;;;;;;;;;;;;;;;0.21;84.35;98306.47;5031496;28;19940;-70
2020/12/05 06:43:17;;;;;;;;;;;;;;;0.06;84.29;98308.41;5047544;28;19994;-70
2020/12/05 06:45:44;;;;;;;;;;;;;;;0.02;85.60;98307.97;5053660;28;19925;-70
2020/12/05 06:48:10;;;;;;;;;;;;;;;-0.17;85.04;98304.16;5052790;28;19932;-70
2020/12/05 06:50:40;;;;;;;;;;;;;;;-0.30;86.17;98327.28;5047806;28;20306;-70
2020/12/05 06:53:18;;;;;;;;;;;;;;;-0.41;86.74;98353.56;5048864;28;19928;-70
2020/12/05 06:55:45;;;;;;;;;;;;;;;-0.42;86.88;98348.41;5048135;28;20027;-70
2020/12/05 06:58:11;;;;;;;;;;;;;;;-0.36;87.21;98364.53;5031825;28;19928;-70
2020/12/05 07:00:38;;;;;;;;;;;;;;;-0.28;86.43;98376.94;5047341;28;20412;-70
2020/12/05 07:03:10;;;;;;;;;;;;;;;-0.01;85.54;98378.00;5032725;28;19924;-70
2020/12/05 07:05:39;;;;;;;;;;;;;;;-0.26;85.45;98401.66;5048869;28;19932;-70
2020/12/05 07:08:39;;;;;;;;;;;;;;;-0.48;86.40;98416.06;5047174;28;20020;-70
2020/12/05 07:11:07;;;;;;;;;;;;;;;-0.60;86.81;98430.94;5039729;28;19968;-70
2020/12/05 07:13:38;;;;;;;;;;;;;;;-0.41;87.20;98427.66;5051506;28;19929;-70
2020/12/05 07:16:18;;;;;;;;;;;;;;;-0.10;86.79;98406.75;5054287;28;19925;-70
2020/12/05 07:18:48;;;;;;;;;;;;;;;0.12;84.77;98382.59;5059340;28;20019;-70
2020/12/05 07:21:15;;;;;;;;;;;;;;;0.28;83.85;98355.53;5051546;28;19944;-70
2020/12/05 07:23:41;;;;;;;;;;;;;;;0.38;83.76;98366.72;5054017;28;19925;-70
2020/12/05 07:26:08;;;;;;;;;;;;;;;0.71;82.08;98392.88;5037561;28;19924;-70
2020/12/05 07:28:35;;;;;;;;;;;;;;;0.98;80.95;98392.81;5037348;28;20336;-70
2020/12/05 07:31:02;;;;;;;;;;;;;;;1.32;79.74;98404.50;5039112;28;20019;-70
2020/12/05 07:33:29;;;;;;;;;;;;;;;1.56;78.36;98411.16;5052500;28;19924;-70
2020/12/05 07:35:59;;;;;;;;;;;;;;;1.31;79.13;98414.41;5072078;28;19925;-70
2020/12/05 07:38:26;;;;;;;;;;;;;;;1.29;79.24;98402.22;5071870;28;20214;-70
2020/12/05 07:40:52;;;;;;;;;;;;;;;1.31;78.96;98411.72;5071929;28;20286;-70
2020/12/05 07:43:19;;;;;;;;;;;;;;;1.75;77.58;98410.38;5055407;28;20149;-70
2020/12/05 07:45:46;;;;;;;;;;;;;;;1.83;75.82;98414.72;5032299;28;19925;-70
2020/12/05 07:48:13;;;;;;;;;;;;;;;1.75;76.58;98406.84;5071274;28;19928;-70
2020/12/05 07:50:39;;;;;;;;;;;;;;;2.22;75.20;98405.88;5043643;28;19924;-70
2020/12/05 07:53:19;;;;;;;;;;;;;;;3.22;71.79;98391.13;5053422;28;19966;-70
2020/12/05 07:55:45;;;;;;;;;;;;;;;3.85;68.03;98380.41;5071940;28;20454;-70
2020/12/05 07:58:11;;;;;;;;;;;;;;;4.60;65.96;98376.66;5051543;28;19960;-70
2020/12/05 08:00:38;;;;;;;;;;;;;;;6.14;60.20;98393.41;5061689;28;19956;-71
2020/12/05 08:03:07;;;;;;;;;;;;;;;7.32;56.39;98393.09;5055261;28;20011;-71
2020/12/05 08:05:33;;;;;;;;;;;;;;;8.84;51.56;98397.69;5072997;28;20408;-71
2020/12/05 08:08:03;;;;;;;;;;;;;;;9.61;48.13;98403.88;5072961;28;20394;-71
2020/12/05 08:10:31;;;;;;;;;;;;;;;10.08;46.61;98425.88;5054340;28;20016;-71
2020/12/05 08:12:57;;;;;;;;;;;;;;;10.25;45.84;98431.25;5052727;28;19924;-72
2020/12/05 08:15:23;;;;;;;;;;;;;;;10.47;45.11;98433.06;5070534;28;19928;-71
2020/12/05 08:17:49;;;;;;;;;;;;;;;10.49;44.72;98434.47;5075851;28;19924;-72
2020/12/05 08:20:16;;;;;;;;;;;;;;;10.53;44.90;98449.19;5075925;28;19932;-71
2020/12/05 08:22:43;;;;;;;;;;;;;;;10.57;44.61;98477.56;5063519;28;19928;-71
2020/12/05 08:25:10;;;;;;;;;;;;;;;10.99;43.69;98499.44;5053186;28;20027;-71
2020/12/05 08:27:36;;;;;;;;;;;;;;;11.81;41.85;98494.50;5051373;28;19924;-71
2020/12/05 08:30:03;;;;;;;;;;;;;;;9.96;45.47;98487.81;5043093;28;19925;-71
2020/12/05 08:32:29;;;;;;;;;;;;;;;8.26;50.40;98512.91;5068775;28;19962;-71
2020/12/05 08:35:05;;;;;;;;;;;;;;;7.28;54.08;98521.97;5072231;28;19924;-71
2020/12/05 08:37:32;;;;;;;;;;;;;;;6.64;56.24;98524.53;5070556;28;19967;-70
2020/12/05 08:39:58;;;;;;;;;;;;;;;6.44;57.43;98510.50;5072467;28;20019;-70
2020/12/05 08:42:25;;;;;;;;;;;;;;;6.75;57.21;98497.72;5054496;28;19925;-71
2020/12/05 08:44:51;;;;;;;;;;;;;;;7.32;55.27;98494.19;5071093;28;19932;-71
2020/12/05 08:47:18;;;;;;;;;;;;;;;7.81;53.52;98499.28;5064189;28;19950;-71
2020/12/05 08:49:45;;;;;;;;;;;;;;;7.32;54.89;98517.75;5072001;28;19979;-71
2020/12/05 08:52:11;;;;;;;;;;;;;;;7.20;55.27;98536.72;5070963;28;20236;-71
2020/12/05 08:54:47;;;;;;;;;;;;;;;7.66;54.21;98540.44;5070674;28;20027;-71
2020/12/05 08:57:13;;;;;;;;;;;;;;;8.89;50.73;98536.31;5071462;28;19928;-70
2020/12/05 08:59:40;;;;;;;;;;;;;;;9.68;47.71;98529.63;5070681;28;19987;-71
2020/12/05 09:02:06;;;;;;;;;;;;;;;8.66;50.52;98548.94;5072457;23;19960;-69
2020/12/05 09:04:33;;;;;;;;;;;;;;;9.73;47.96;98550.63;5050409;28;19925;-68
2020/12/05 09:07:10;;;;;;;;;;;;;;;10.85;44.80;98527.38;5005234;28;19979;-69
2020/12/05 09:09:40;;;;;;;;;;;;;;;9.40;47.94;98535.19;5036965;28;20357;-69
2020/12/05 09:12:10;;;;;;;;;;;;;;;8.74;50.03;98550.44;5068687;28;20362;-69
2020/12/05 09:14:37;;;;;;;;;;;;;;;8.70;50.69;98550.09;5065355;28;19932;-68
2020/12/05 09:17:19;;;;;;;;;;;;;;;10.32;46.25;98543.50;5038110;28;19947;-69
2020/12/05 09:19:45;;;;;;;;;;;;;;;12.15;41.63;98544.06;5072378;28;19956;-69
2020/12/05 09:22:31;;;;;;;;;;;;;;;12.91;39.68;98566.94;5069856;28;19947;-69
2020/12/05 09:24:57;;;;;;;;;;;;;;;11.20;42.94;98627.75;5041138;28;19979;-69
2020/12/05 09:27:33;;;;;;;;;;;;;;;9.43;47.22;98656.22;5046630;28;20123;-69
2020/12/05 09:30:00;;;;;;;;;;;;;;;8.92;49.09;98677.91;5072517;28;19928;-69
2020/12/05 09:32:36;;;;;;;;;;;;;;;8.02;51.69;98683.88;5054772;28;19991;-69
2020/12/05 09:35:02;;;;;;;;;;;;;;;7.58;53.47;98690.75;5056596;28;19924;-69
2020/12/05 09:37:28;;;;;;;;;;;;;;;7.36;54.21;98689.63;5072200;28;19931;-69
2020/12/05 09:39:55;;;;;;;;;;;;;;;7.40;54.31;98688.09;5054262;28;19932;-69
2020/12/05 09:42:22;;;;;;;;;;;;;;;8.10;52.33;98690.03;5046306;28;19925;-69
2020/12/05 09:44:49;;;;;;;;;;;;;;;9.40;49.13;98701.03;5081304;28;20319;-68
2020/12/05 09:47:15;;;;;;;;;;;;;;;9.26;48.42;98713.31;5050345;28;19928;-68
2020/12/05 09:49:41;;;;;;;;;;;;;;;8.71;50.03;98724.72;5053270;28;19953;-69
2020/12/05 09:52:08;;;;;;;;;;;;;;;8.33;51.39;98744.28;5045265;28;19925;-68
2020/12/05 09:54:36;;;;;;;;;;;;;;;8.71;50.60;98741.84;5071091;28;19967;-70
2020/12/05 09:57:03;;;;;;;;;;;;;;;10.01;47.35;98740.13;5055425;28;19931;-70
2020/12/05 09:59:29;;;;;;;;;;;;;;;13.38;39.53;98719.94;5072214;28;19970;-71
2020/12/05 10:01:56;;;;;;;;;;;;;;;14.46;36.53;98729.81;5071639;28;20015;-71
2020/12/05 10:04:22;;;;;;;;;;;;;;;15.45;34.28;98713.44;5052682;28;19925;-71
2020/12/05 10:06:49;;;;;;;;;;;;;;;16.35;32.54;98700.06;5071904;28;19925;-71
2020/12/05 10:09:15;;;;;;;;;;;;;;;16.24;32.16;98701.28;5055745;28;19978;-71
2020/12/05 10:11:42;;;;;;;;;;;;;;;16.15;31.69;98678.28;5022401;28;19928;-72
2020/12/05 10:14:08;;;;;;;;;;;;;;;16.81;30.87;98661.06;5039232;28;19947;-71
2020/12/05 10:16:34;;;;;;;;;;;;;;;14.36;34.19;98670.31;5045593;28;19925;-71
2020/12/05 10:19:00;;;;;;;;;;;;;;;11.75;40.07;98688.25;5058166;28;19956;-71
2020/12/05 10:21:27;;;;;;;;;;;;;;;12.12;40.47;98687.44;5072026;28;19932;-71
2020/12/05 10:23:53;;;;;;;;;;;;;;;12.46;39.36;98690.63;5072467;28;19947;-71
2020/12/05 10:26:19;;;;;;;;;;;;;;;11.03;42.15;98685.94;5079738;28;19959;-72
2020/12/05 10:28:45;;;;;;;;;;;;;;;11.01;42.20;98706.34;5085275;28;19931;-72
2020/12/05 10:31:12;;;;;;;;;;;;;;;10.65;42.75;98726.91;5031409;28;20020;-71
2020/12/05 10:33:38;;;;;;;;;;;;;;;10.69;43.02;98737.06;5070375;28;20402;-71
2020/12/05 10:36:05;;;;;;;;;;;;;;;10.11;44.07;98761.22;5072245;28;19967;-71
2020/12/05 10:38:31;;;;;;;;;;;;;;;9.86;45.02;98767.91;5072165;28;19963;-71
2020/12/05 10:40:57;;;;;;;;;;;;;;;9.26;46.53;98776.66;5073706;28;19931;-71
2020/12/05 10:43:23;;;;;;;;;;;;;;;9.39;46.80;98781.78;5055566;28;19928;-71
2020/12/05 10:45:50;;;;;;;;;;;;;;;9.22;46.87;98756.47;5066522;28;19928;-70
2020/12/05 10:48:16;;;;;;;;;;;;;;;9.49;47.00;98743.06;5073399;28;19959;-71
2020/12/05 10:50:42;;;;;;;;;;;;;;;9.69;46.65;98731.75;5053772;28;19983;-71
2020/12/05 10:53:09;;;;;;;;;;;;;;;10.59;44.03;98731.47;5073485;28;19924;-71
2020/12/05 10:55:35;;;;;;;;;;;;;;;13.41;38.49;98708.47;5074801;28;19955;-71
2020/12/05 10:58:03;;;;;;;;;;;;;;;15.26;34.55;98697.63;5074436;28;19929;-71
2020/12/05 11:00:30;;;;;;;;;;;;;;;16.07;32.36;98691.53;5037152;28;19940;-71
2020/12/05 11:02:56;;;;;;;;;;;;;;;16.89;30.95;98723.69;5057155;28;19929;-72
2020/12/05 11:05:22;;;;;;;;;;;;;;;17.20;29.96;98744.22;5056819;28;20305;-72
2020/12/05 11:07:49;;;;;;;;;;;;;;;16.04;31.58;98754.50;5024730;28;19975;-71
2020/12/05 11:10:16;;;;;;;;;;;;;;;13.79;35.28;98772.00;5058583;28;19925;-71
2020/12/05 11:12:42;;;;;;;;;;;;;;;11.82;39.17;98785.47;5051332;28;19956;-71
2020/12/05 11:15:08;;;;;;;;;;;;;;;11.32;41.02;98801.03;5071826;28;19947;-71
2020/12/05 11:17:34;;;;;;;;;;;;;;;11.45;40.96;98801.69;5022093;28;20016;-71
2020/12/05 11:20:00;;;;;;;;;;;;;;;11.07;42.08;98803.47;5073998;28;19975;-71
2020/12/05 11:22:27;;;;;;;;;;;;;;;10.20;44.12;98803.31;5054156;28;19925;-71
2020/12/05 11:24:54;;;;;;;;;;;;;;;9.78;45.92;98803.69;5053095;28;20333;-70
2020/12/05 11:27:20;;;;;;;;;;;;;;;9.79;45.91;98799.91;5037318;28;20023;-70
2020/12/05 11:29:46;;;;;;;;;;;;;;;9.99;45.58;98786.66;5073208;28;20413;-69
2020/12/05 11:32:13;;;;;;;;;;;;;;;10.25;45.06;98778.91;5055774;28;19960;-71
2020/12/05 11:34:39;;;;;;;;;;;;;;;10.43;44.68;98783.25;5037739;28;19924;-70
2020/12/05 11:37:05;;;;;;;;;;;;;;;9.81;46.20;98791.50;5071446;28;19924;-71
2020/12/05 11:39:31;;;;;;;;;;;;;;;9.71;46.66;98801.13;5072987;28;20340;-71
2020/12/05 11:41:57;;;;;;;;;;;;;;;9.78;46.44;98789.25;5038794;28;20027;-70
2020/12/05 11:44:24;;;;;;;;;;;;;;;9.69;46.78;98783.41;5056444;28;19960;-70
2020/12/05 11:46:51;;;;;;;;;;;;;;;9.78;46.49;98790.09;5036169;28;20390;-71
2020/12/05 11:49:17;;;;;;;;;;;;;;;9.45;47.15;98800.91;5073019;28;19924;-70
2020/12/05 11:51:43;;;;;;;;;;;;;;;9.19;47.83;98814.03;5056086;28;20348;-69
2020/12/05 11:54:09;;;;;;;;;;;;;;;9.04;48.12;98830.00;5071980;28;20398;-70
2020/12/05 11:56:37;;;;;;;;;;;;;;;8.80;48.90;98831.94;5071683;28;19966;-69
2020/12/05 11:59:03;;;;;;;;;;;;;;;8.53;49.61;98847.09;5059420;28;19990;-69
2020/12/05 12:01:30;;;;;;;;;;;;;;;8.43;50.00;98861.25;5075026;28;19929;-70
2020/12/05 12:03:56;;;;;;;;;;;;;;;7.92;51.41;98868.13;5076407;28;20019;-69
2020/12/05 12:06:22;;;;;;;;;;;;;;;7.64;52.82;98874.13;5056350;28;19978;-70
2020/12/05 12:08:49;;;;;;;;;;;;;;;7.61;52.52;98874.63;5071959;28;19970;-69
2020/12/05 12:11:20;;;;;;;;;;;;;;;7.77;52.89;98875.00;5072398;28;19985;-69
2020/12/05 12:13:47;;;;;;;;;;;;;;;7.83;51.91;98879.53;5072880;28;19935;-71
2020/12/05 12:16:13;;;;;;;;;;;;;;;8.14;51.27;98891.97;5069663;28;20367;-71
2020/12/05 12:18:39;;;;;;;;;;;;;;;8.12;51.56;98894.94;5055067;28;19924;-70
2020/12/05 12:21:06;;;;;;;;;;;;;;;7.83;51.79;98895.78;5038997;28;19974;-69
2020/12/05 12:23:32;;;;;;;;;;;;;;;7.73;52.68;98901.75;5035821;28;19925;-69
2020/12/05 12:25:58;;;;;;;;;;;;;;;7.70;52.44;98907.63;5071044;28;19924;-70
2020/12/05 12:28:25;;;;;;;;;;;;;;;7.66;53.23;98920.81;5052424;28;19925;-68
2020/12/05 12:30:51;;;;;;;;;;;;;;;7.65;53.36;98938.16;5053975;28;19925;-69
2020/12/05 12:33:17;;;;;;;;;;;;;;;7.62;53.24;98938.59;5055898;28;19924;-70
2020/12/05 12:35:44;;;;;;;;;;;;;;;7.53;52.98;98934.56;5069379;28;19952;-70
2020/12/05 12:38:11;;;;;;;;;;;;;;;7.53;53.18;98939.16;5091036;28;19928;-70
2020/12/05 12:40:37;;;;;;;;;;;;;;;7.66;52.78;98928.97;5090108;28;19925;-69
2020/12/05 12:43:04;;;;;;;;;;;;;;;7.87;52.29;98927.66;5059740;28;20015;-69
2020/12/05 12:45:32;;;;;;;;;;;;;;;7.95;51.92;98921.91;5073126;28;19996;-69
2020/12/05 12:50:25;;;;;;;;;;;;;;;7.95;52.03;98919.19;5037645;28;19925;-69
2020/12/05 12:52:51;;;;;;;;;;;;;;;7.98;51.88;98915.16;5029175;28;19932;-69
2020/12/05 12:55:17;;;;;;;;;;;;;;;7.79;52.70;98927.13;5071917;28;20031;-69
2020/12/05 12:57:46;;;;;;;;;;;;;;;7.57;53.13;98940.38;5073725;28;19933;-70
2020/12/05 13:00:16;;;;;;;;;;;;;;;7.38;53.75;98932.25;5067522;28;19929;-70